createdAt,value
2022-09-28T00:01:44.088Z,11.81
2022-09-28T00:04:13.314Z,11.67
2022-09-28T00:06:43.481Z,11.63
2022-09-28T00:09:12.063Z,11.65
2022-09-28T00:11:40.927Z,11.61
2022-09-28T00:14:09.506Z,11.60
2022-09-28T00:16:41.197Z,11.55
2022-09-28T00:19:10.901Z,11.56
2022-09-28T00:21:41.594Z,11.47
2022-09-28T00:24:15.971Z,11.55
2022-09-28T00:27:03.484Z,11.45
2022-09-28T00:29:37.688Z,11.43
2022-09-28T00:32:13.385Z,11.41
2022-09-28T00:34:48.955Z,11.42
2022-09-28T00:37:25.109Z,11.46
2022-09-28T00:40:01.166Z,11.51
2022-09-28T00:42:31.141Z,11.61
2022-09-28T00:45:00.796Z,11.57
2022-09-28T00:47:49.261Z,11.70
2022-09-28T00:50:29.830Z,11.81
2022-09-28T00:53:16.740Z,11.87
2022-09-28T00:55:53.276Z,11.89
2022-09-28T00:58:25.024Z,11.90
2022-09-28T01:00:58.943Z,11.98
2022-09-28T01:03:29.329Z,12.05
2022-09-28T01:06:01.801Z,12.19
2022-09-28T01:08:33.420Z,12.14
2022-09-28T01:11:03.759Z,12.21
2022-09-28T01:13:33.717Z,12.19
2022-09-28T01:16:13.234Z,12.22
2022-09-28T01:19:04.451Z,12.12
2022-09-28T01:21:42.185Z,12.03
2022-09-28T01:24:33.149Z,11.89
2022-09-28T01:27:04.784Z,11.77
2022-09-28T01:29:54.265Z,11.83
2022-09-28T01:32:28.540Z,11.82
2022-09-28T01:35:17.992Z,11.74
2022-09-28T01:38:05.296Z,11.73
2022-09-28T01:40:35.536Z,11.64
2022-09-28T01:43:07.330Z,11.74
2022-09-28T01:45:38.978Z,11.94
2022-09-28T01:48:10.747Z,11.99
2022-09-28T01:50:44.401Z,12.08
2022-09-28T01:53:22.067Z,11.98
2022-09-28T01:55:57.101Z,12.00
2022-09-28T01:58:40.555Z,11.84
2022-09-28T02:01:13.303Z,11.97
2022-09-28T02:03:52.973Z,11.67
2022-09-28T02:06:28.529Z,11.72
2022-09-28T02:09:04.268Z,11.73
2022-09-28T02:11:35.789Z,11.73
2022-09-28T02:14:07.363Z,11.90
2022-09-28T02:16:41.926Z,11.83
2022-09-28T02:19:16.637Z,11.94
2022-09-28T02:22:00.660Z,11.89
2022-09-28T02:24:32.337Z,11.93
2022-09-28T02:27:05.720Z,11.96
2022-09-28T02:29:34.488Z,11.94
2022-09-28T02:32:03.269Z,11.29
2022-09-28T02:34:33.431Z,11.89
2022-09-28T02:37:03.042Z,11.85
2022-09-28T02:39:31.728Z,11.93
2022-09-28T02:42:23.717Z,11.92
2022-09-28T02:45:07.082Z,11.90
2022-09-28T02:47:55.755Z,11.64
2022-09-28T02:50:57.206Z,11.68
2022-09-28T02:53:43.865Z,11.82
2022-09-28T02:56:33.829Z,11.72
2022-09-28T02:59:20.181Z,11.70
2022-09-28T03:02:00.649Z,11.57
2022-09-28T03:04:49.406Z,11.67
2022-09-28T03:07:29.604Z,11.55
2022-09-28T03:10:10.180Z,11.44
2022-09-28T03:12:42.291Z,11.57
2022-09-28T03:15:26.036Z,11.29
2022-09-28T03:17:56.265Z,11.37
2022-09-28T03:20:25.425Z,11.39
2022-09-28T03:23:19.722Z,11.44
2022-09-28T03:25:24.846Z,11.62
2022-09-28T03:27:53.604Z,11.57
2022-09-28T03:30:22.610Z,11.52
2022-09-28T03:32:54.162Z,11.66
2022-09-28T03:35:24.344Z,11.60
2022-09-28T03:37:57.710Z,11.65
2022-09-28T03:40:28.492Z,11.58
2022-09-28T03:42:56.696Z,11.61
2022-09-28T03:45:26.549Z,11.51
2022-09-28T03:47:55.125Z,11.53
2022-09-28T03:50:23.956Z,11.50
2022-09-28T03:52:54.605Z,11.65
2022-09-28T03:55:24.880Z,11.63
2022-09-28T03:57:56.476Z,11.56
2022-09-28T04:00:27.340Z,11.63
2022-09-28T04:02:55.999Z,11.66
2022-09-28T04:05:24.770Z,11.69
2022-09-28T04:07:56.978Z,11.62
2022-09-28T04:10:28.768Z,11.64
2022-09-28T04:12:58.666Z,11.62
2022-09-28T04:15:27.329Z,11.69
2022-09-28T04:17:55.900Z,11.62
2022-09-28T04:20:24.537Z,11.65
2022-09-28T04:22:53.203Z,11.71
2022-09-28T04:25:21.936Z,11.71
2022-09-28T04:28:08.654Z,11.83
2022-09-28T04:30:37.352Z,11.68
2022-09-28T04:33:06.225Z,11.65
2022-09-28T04:35:34.898Z,11.78
2022-09-28T04:38:03.601Z,11.87
2022-09-28T04:40:32.329Z,12.04
2022-09-28T04:43:01.128Z,11.87
2022-09-28T04:45:50.632Z,12.21
2022-09-28T04:48:19.359Z,12.40
2022-09-28T04:50:50.991Z,12.43
2022-09-28T04:53:19.642Z,12.41
2022-09-28T04:55:57.261Z,12.49
2022-09-28T04:58:26.900Z,12.54
2022-09-28T05:01:01.109Z,12.46
2022-09-28T05:03:29.798Z,12.53
2022-09-28T05:06:00.016Z,12.59
2022-09-28T05:08:30.827Z,12.49
2022-09-28T05:11:09.958Z,12.38
2022-09-28T05:13:45.278Z,12.45
2022-09-28T05:16:16.658Z,12.23
2022-09-28T05:18:45.475Z,12.43
2022-09-28T05:21:16.293Z,12.33
2022-09-28T05:23:48.761Z,12.12
2022-09-28T05:26:17.562Z,12.00
2022-09-28T05:28:46.319Z,11.74
2022-09-28T05:31:15.516Z,11.96
2022-09-28T05:33:44.175Z,12.11
2022-09-28T05:36:12.920Z,12.36
2022-09-28T05:38:41.614Z,12.45
2022-09-28T05:41:10.419Z,12.53
2022-09-28T05:43:39.189Z,12.73
2022-09-28T05:46:09.488Z,12.61
2022-09-28T05:48:38.138Z,12.99
2022-09-28T05:51:07.093Z,12.95
2022-09-28T05:53:38.738Z,13.30
2022-09-28T05:56:10.527Z,13.61
2022-09-28T05:58:39.386Z,13.75
2022-09-28T06:01:08.128Z,13.90
2022-09-28T06:03:38.364Z,14.23
2022-09-28T06:06:07.149Z,14.63
2022-09-28T06:08:35.971Z,14.71
2022-09-28T06:11:04.694Z,14.60
2022-09-28T06:13:33.432Z,14.94
2022-09-28T06:16:03.859Z,15.14
2022-09-28T06:18:32.468Z,15.06
2022-09-28T06:21:01.610Z,15.24
2022-09-28T06:23:30.380Z,15.22
2022-09-28T06:26:01.378Z,15.28
2022-09-28T06:28:30.131Z,15.10
2022-09-28T06:31:03.255Z,14.79
2022-09-28T06:33:34.366Z,14.71
2022-09-28T06:36:03.288Z,14.48
2022-09-28T06:38:31.879Z,13.65
2022-09-28T06:41:00.657Z,14.15
2022-09-28T06:43:34.116Z,13.96
2022-09-28T06:46:05.515Z,13.96
2022-09-28T06:48:38.131Z,14.14
2022-09-28T06:51:09.691Z,14.75
2022-09-28T06:53:38.810Z,15.38
2022-09-28T06:56:12.087Z,15.19
2022-09-28T06:58:40.742Z,15.14
2022-09-28T07:01:14.727Z,14.97
2022-09-28T07:03:43.274Z,15.12
2022-09-28T07:06:13.440Z,15.04
2022-09-28T07:08:42.080Z,15.28
2022-09-28T07:11:11.246Z,16.06
2022-09-28T07:13:56.004Z,16.26
2022-09-28T07:16:12.416Z,16.00
2022-09-28T07:18:42.277Z,15.42
2022-09-28T07:21:20.619Z,15.17
2022-09-28T07:23:51.150Z,15.58
2022-09-28T07:26:12.321Z,16.01
2022-09-28T07:28:41.413Z,16.28
2022-09-28T07:31:11.133Z,15.80
2022-09-28T07:33:42.785Z,15.95
2022-09-28T07:36:11.584Z,15.96
2022-09-28T07:38:42.684Z,15.68
2022-09-28T07:41:18.953Z,15.72
2022-09-28T07:43:47.723Z,16.09
2022-09-28T07:46:17.716Z,16.07
2022-09-28T07:48:46.425Z,16.48
2022-09-28T07:51:18.170Z,16.41
2022-09-28T07:53:48.094Z,16.45
2022-09-28T07:56:18.515Z,16.54
2022-09-28T07:58:49.657Z,16.96
2022-09-28T08:01:19.386Z,16.73
2022-09-28T08:03:48.668Z,16.90
2022-09-28T08:06:18.424Z,16.76
2022-09-28T08:08:47.050Z,17.00
2022-09-28T08:11:19.494Z,17.35
2022-09-28T08:13:48.251Z,17.41
2022-09-28T08:16:18.722Z,17.12
2022-09-28T08:18:52.057Z,17.49
2022-09-28T08:21:40.517Z,17.61
2022-09-28T08:24:12.331Z,17.88
2022-09-28T08:26:41.305Z,18.49
2022-09-28T08:29:10.182Z,19.11
2022-09-28T08:31:38.982Z,18.78
2022-09-28T08:34:09.193Z,19.34
2022-09-28T08:36:40.626Z,19.36
2022-09-28T08:39:09.644Z,19.29
2022-09-28T08:41:53.194Z,19.29
2022-09-28T08:44:24.622Z,19.15
2022-09-28T08:46:56.240Z,18.68
2022-09-28T08:49:34.068Z,19.09
2022-09-28T08:52:07.663Z,19.22
2022-09-28T08:54:48.864Z,19.16
2022-09-28T08:57:20.839Z,19.41
2022-09-28T08:59:58.387Z,18.81
2022-09-28T09:02:36.215Z,18.86
2022-09-28T09:05:07.702Z,18.85
2022-09-28T09:08:12.888Z,19.24
2022-09-28T09:10:59.075Z,19.68
2022-09-28T09:13:59.720Z,19.54
2022-09-28T09:16:46.499Z,19.41
2022-09-28T09:19:51.363Z,19.01
2022-09-28T09:22:41.256Z,17.93
2022-09-28T09:25:21.744Z,18.85
2022-09-28T09:28:13.768Z,18.79
2022-09-28T09:31:03.395Z,19.02
2022-09-28T09:33:41.814Z,18.83
2022-09-28T09:36:16.023Z,18.81
2022-09-28T09:39:19.460Z,19.03
2022-09-28T09:41:54.062Z,19.09
2022-09-28T09:44:28.204Z,19.13
2022-09-28T09:47:07.271Z,19.35
2022-09-28T09:49:38.904Z,19.32
2022-09-28T09:52:13.022Z,19.59
2022-09-28T09:54:53.475Z,19.63
2022-09-28T09:57:35.939Z,19.37
2022-09-28T10:00:06.470Z,19.43
2022-09-28T10:02:38.236Z,19.79
2022-09-28T10:05:15.719Z,19.97
2022-09-28T10:08:05.263Z,20.06
2022-09-28T10:10:39.705Z,20.18
2022-09-28T10:13:14.127Z,20.21
2022-09-28T10:15:45.303Z,20.37
2022-09-28T10:18:15.759Z,20.13
2022-09-28T10:20:47.181Z,20.40
2022-09-28T10:23:34.062Z,20.29
2022-09-28T10:26:25.354Z,20.67
2022-09-28T10:28:57.093Z,20.75
2022-09-28T10:31:43.673Z,20.88
2022-09-28T10:34:14.929Z,20.95
2022-09-28T10:36:52.560Z,21.09
2022-09-28T10:39:28.373Z,21.25
2022-09-28T10:41:59.133Z,21.51
2022-09-28T10:44:28.464Z,21.89
2022-09-28T10:46:59.942Z,22.21
2022-09-28T10:49:41.059Z,21.82
2022-09-28T10:52:08.934Z,22.23
2022-09-28T10:54:39.097Z,22.13
2022-09-28T10:57:13.461Z,21.92
2022-09-28T10:59:43.186Z,21.90
2022-09-28T11:02:25.281Z,22.24
2022-09-28T11:04:56.990Z,22.63
2022-09-28T11:07:52.549Z,23.10
2022-09-28T11:10:25.303Z,23.26
2022-09-28T11:12:55.555Z,23.85
2022-09-28T11:15:27.292Z,24.19
2022-09-28T11:17:58.907Z,24.71
2022-09-28T11:20:30.586Z,24.14
2022-09-28T11:23:23.501Z,23.69
2022-09-28T11:26:07.165Z,23.97
2022-09-28T11:28:39.938Z,23.68
2022-09-28T11:31:14.587Z,23.61
2022-09-28T11:33:49.072Z,23.76
2022-09-28T11:36:23.424Z,24.50
2022-09-28T11:39:02.377Z,25.21
2022-09-28T11:41:43.949Z,23.72
2022-09-28T11:44:44.309Z,24.63
2022-09-28T11:47:15.894Z,23.77
2022-09-28T11:50:12.024Z,23.19
2022-09-28T11:52:46.547Z,23.36
2022-09-28T11:55:24.456Z,23.39
2022-09-28T11:58:06.534Z,23.44
2022-09-28T12:00:38.447Z,23.68
2022-09-28T12:03:10.145Z,23.48
2022-09-28T12:05:41.947Z,24.63
2022-09-28T12:08:37.546Z,25.28
2022-09-28T12:11:18.427Z,25.82
2022-09-28T12:13:52.678Z,25.87
2022-09-28T12:17:04.117Z,25.98
2022-09-28T12:19:31.015Z,25.42
2022-09-28T12:22:02.776Z,25.48
2022-09-28T12:24:35.959Z,24.78
2022-09-28T12:27:14.391Z,23.73
2022-09-28T12:29:48.357Z,24.05
2022-09-28T12:32:38.226Z,24.26
2022-09-28T12:35:16.066Z,24.52
2022-09-28T12:37:59.669Z,24.16
2022-09-28T12:40:39.815Z,24.18
2022-09-28T12:43:42.026Z,23.84
2022-09-28T12:46:16.715Z,24.91
2022-09-28T12:49:33.146Z,23.70
2022-09-28T12:51:30.614Z,24.11
2022-09-28T12:54:38.961Z,24.47
2022-09-28T12:57:15.279Z,24.15
2022-09-28T12:59:47.442Z,24.31
2022-09-28T13:02:53.204Z,24.13
2022-09-28T13:05:56.715Z,23.98
2022-09-28T13:08:38.244Z,23.71
2022-09-28T13:11:31.191Z,23.65
2022-09-28T13:14:31.435Z,24.05
2022-09-28T13:17:04.564Z,23.95
2022-09-28T13:19:36.783Z,24.06
2022-09-28T13:22:32.020Z,23.80
2022-09-28T13:25:06.623Z,24.48
2022-09-28T13:27:38.173Z,24.25
2022-09-28T13:30:11.409Z,24.58
2022-09-28T13:32:40.922Z,24.52
2022-09-28T13:35:15.919Z,24.69
2022-09-28T13:37:47.184Z,24.30
2022-09-28T13:40:16.289Z,24.55
2022-09-28T13:42:53.443Z,24.66
2022-09-28T13:45:26.555Z,24.73
2022-09-28T13:48:20.528Z,24.86
2022-09-28T13:51:04.292Z,24.91
2022-09-28T13:53:48.355Z,24.58
2022-09-28T13:56:49.167Z,23.63
2022-09-28T13:59:29.863Z,23.64
2022-09-28T14:02:25.243Z,23.55
2022-09-28T14:04:57.333Z,23.63
2022-09-28T14:07:29.283Z,22.95
2022-09-28T14:10:18.891Z,22.96
2022-09-28T14:12:57.517Z,22.98
2022-09-28T14:15:38.260Z,23.38
2022-09-28T14:18:25.819Z,23.52
2022-09-28T14:21:30.617Z,23.47
2022-09-28T14:24:18.727Z,23.79
2022-09-28T14:26:56.258Z,23.71
2022-09-28T14:29:40.063Z,23.29
2022-09-28T14:32:14.311Z,22.59
2022-09-28T14:34:50.700Z,22.36
2022-09-28T14:37:39.907Z,22.42
2022-09-28T14:40:38.697Z,22.32
2022-09-28T14:43:25.358Z,22.17
2022-09-28T14:46:15.372Z,21.98
2022-09-28T14:49:04.747Z,21.94
2022-09-28T14:51:37.915Z,21.92
2022-09-28T14:54:12.373Z,22.06
2022-09-28T14:56:52.522Z,22.18
2022-09-28T14:59:34.088Z,22.11
2022-09-28T15:02:11.642Z,22.13
2022-09-28T15:04:46.367Z,22.22
2022-09-28T15:07:21.441Z,22.28
2022-09-28T15:09:52.791Z,22.11
2022-09-28T15:12:27.658Z,22.35
2022-09-28T15:15:10.243Z,22.75
2022-09-28T15:17:42.533Z,23.15
2022-09-28T15:20:30.406Z,23.44
2022-09-28T15:23:03.561Z,23.37
2022-09-28T15:25:39.333Z,22.76
2022-09-28T15:28:21.543Z,22.33
2022-09-28T15:30:50.693Z,22.27
2022-09-28T15:33:51.875Z,22.23
2022-09-28T15:36:23.960Z,22.04
2022-09-28T15:39:04.671Z,21.73
2022-09-28T15:41:34.720Z,21.37
2022-09-28T15:44:07.940Z,21.10
2022-09-28T15:46:39.567Z,20.88
2022-09-28T15:49:10.946Z,20.60
2022-09-28T15:51:56.416Z,20.45
2022-09-28T15:54:28.078Z,19.65
2022-09-28T15:57:06.361Z,19.82
2022-09-28T15:59:45.415Z,19.70
2022-09-28T16:02:29.212Z,19.52
2022-09-28T16:05:01.299Z,19.28
2022-09-28T16:08:11.116Z,19.05
2022-09-28T16:11:24.753Z,18.89
2022-09-28T16:13:59.972Z,18.78
2022-09-28T16:16:54.346Z,18.53
2022-09-28T16:19:26.322Z,18.41
2022-09-28T16:22:00.486Z,18.26
2022-09-28T16:24:32.096Z,18.17
2022-09-28T16:27:06.479Z,18.09
2022-09-28T16:29:40.591Z,17.89
2022-09-28T16:32:31.596Z,17.85
2022-09-28T16:35:25.218Z,17.88
2022-09-28T16:38:13.931Z,17.83
2022-09-28T16:40:49.620Z,17.90
2022-09-28T16:43:25.988Z,17.92
2022-09-28T16:45:58.329Z,18.00
2022-09-28T16:48:30.145Z,17.94
2022-09-28T16:50:59.309Z,17.88
2022-09-28T16:53:46.441Z,17.62
2022-09-28T16:56:15.190Z,17.54
2022-09-28T16:58:44.259Z,17.50
2022-09-28T17:01:14.930Z,17.35
2022-09-28T17:03:48.354Z,17.36
2022-09-28T17:06:21.662Z,17.28
2022-09-28T17:08:50.359Z,17.19
2022-09-28T17:11:24.483Z,17.10
2022-09-28T17:13:51.729Z,17.28
2022-09-28T17:16:42.697Z,17.18
2022-09-28T17:18:53.648Z,17.01
2022-09-28T17:21:22.349Z,17.00
2022-09-28T17:23:54.488Z,16.93
2022-09-28T17:26:34.871Z,16.87
2022-09-28T17:29:03.750Z,16.71
2022-09-28T17:31:32.468Z,16.93
2022-09-28T17:34:03.188Z,16.84
2022-09-28T17:36:31.895Z,16.90
2022-09-28T17:39:03.825Z,16.99
2022-09-28T17:41:34.167Z,17.12
2022-09-28T17:44:04.420Z,17.03
2022-09-28T17:46:36.410Z,17.16
2022-09-28T17:49:07.461Z,17.17
2022-09-28T17:51:41.476Z,17.08
2022-09-28T17:54:10.341Z,17.13
2022-09-28T17:56:39.117Z,17.10
2022-09-28T17:59:10.509Z,17.01
2022-09-28T18:01:43.136Z,17.13
2022-09-28T18:04:33.738Z,17.05
2022-09-28T18:06:47.721Z,16.97
2022-09-28T18:09:16.730Z,16.98
2022-09-28T18:11:46.177Z,16.93
2022-09-28T18:14:17.921Z,16.93
2022-09-28T18:16:49.272Z,16.83
2022-09-28T18:19:19.500Z,16.81
2022-09-28T18:21:48.486Z,16.73
2022-09-28T18:24:17.383Z,16.67
2022-09-28T18:26:45.981Z,16.45
2022-09-28T18:29:17.570Z,16.60
2022-09-28T18:31:47.891Z,16.68
2022-09-28T18:34:16.820Z,16.71
2022-09-28T18:36:47.094Z,16.61
2022-09-28T18:39:15.821Z,16.59
2022-09-28T18:41:44.444Z,16.40
2022-09-28T18:44:14.795Z,16.41
2022-09-28T18:49:44.750Z,16.44
2022-09-28T18:52:12.728Z,16.32
2022-09-28T18:55:07.622Z,16.25
2022-09-28T19:03:51.327Z,16.08
2022-09-28T19:09:25.376Z,15.90
2022-09-28T19:11:59.000Z,16.01
2022-09-28T19:14:34.153Z,16.07
2022-09-28T19:17:03.072Z,16.07
2022-09-28T19:19:35.064Z,16.22
2022-09-28T19:22:05.184Z,16.01
2022-09-28T19:24:34.015Z,16.09
2022-09-28T19:27:02.742Z,16.21
2022-09-28T19:29:31.358Z,16.09
2022-09-28T19:32:02.780Z,16.11
2022-09-28T19:37:25.734Z,16.28
2022-09-28T19:39:55.026Z,16.21
2022-09-28T19:42:27.228Z,16.14
2022-09-28T19:45:04.744Z,16.12
2022-09-28T19:47:33.668Z,15.59
2022-09-28T19:50:04.971Z,16.05
2022-09-28T19:52:33.751Z,16.05
2022-09-28T19:55:06.932Z,16.16
2022-09-28T19:57:37.822Z,16.23
2022-09-28T20:00:09.869Z,16.28
2022-09-28T20:02:38.692Z,16.23
2022-09-28T20:05:07.741Z,16.16
2022-09-28T20:07:37.127Z,16.28
2022-09-28T20:10:06.443Z,16.28
2022-09-28T20:12:44.435Z,16.19
2022-09-28T20:15:13.396Z,16.21
2022-09-28T20:17:43.759Z,15.99
2022-09-28T20:20:12.721Z,15.98
2022-09-28T20:22:45.557Z,15.96
2022-09-28T20:25:14.087Z,15.87
2022-09-28T20:27:44.442Z,15.74
2022-09-28T20:30:14.958Z,15.70
2022-09-28T20:32:51.620Z,15.71
2022-09-28T20:35:32.255Z,15.65
2022-09-28T20:37:55.835Z,15.69
2022-09-28T20:40:37.267Z,15.74
2022-09-28T20:43:10.726Z,15.74
2022-09-28T20:45:41.230Z,15.43
2022-09-28T20:48:12.986Z,15.64
2022-09-28T20:50:45.379Z,15.65
2022-09-28T20:53:18.496Z,15.56
2022-09-28T20:55:47.533Z,15.50
2022-09-28T20:58:17.723Z,15.49
2022-09-28T21:00:50.035Z,15.47
2022-09-28T21:03:23.183Z,15.42
2022-09-28T21:06:26.423Z,15.45
2022-09-28T21:08:52.602Z,15.30
2022-09-28T21:11:27.177Z,15.25
2022-09-28T21:14:02.134Z,15.23
2022-09-28T21:16:33.221Z,15.15
2022-09-28T21:19:02.230Z,15.04
2022-09-28T21:21:31.290Z,14.99
2022-09-28T21:24:02.591Z,14.90
2022-09-28T21:26:33.239Z,14.85
2022-09-28T21:29:14.545Z,14.84
2022-09-28T21:31:47.803Z,14.86
2022-09-28T21:34:24.891Z,15.02
2022-09-28T21:36:54.915Z,15.12
2022-09-28T21:39:28.057Z,14.97
2022-09-28T21:41:57.073Z,14.85
2022-09-28T21:44:36.596Z,14.89
2022-09-28T21:47:05.845Z,14.85
2022-09-28T21:49:45.122Z,14.79
2022-09-28T21:52:17.138Z,14.75
2022-09-28T21:54:47.495Z,14.60
2022-09-28T22:04:29.022Z,14.48
2022-09-28T22:09:34.429Z,14.38
2022-09-28T22:12:12.431Z,14.43
2022-09-28T22:14:48.404Z,14.40
2022-09-28T22:17:24.644Z,14.49
2022-09-28T22:19:57.013Z,14.58
2022-09-28T22:22:42.757Z,14.64
2022-09-28T22:25:31.604Z,14.73
2022-09-28T22:28:09.069Z,14.76
2022-09-28T22:30:52.231Z,14.70
2022-09-28T22:33:26.229Z,14.75
2022-09-28T22:36:10.994Z,14.90
2022-09-28T22:38:45.715Z,14.89
2022-09-28T22:41:47.349Z,14.98
2022-09-28T22:44:26.888Z,14.83
2022-09-28T22:47:05.766Z,14.97
2022-09-28T22:49:37.906Z,15.11
2022-09-28T22:52:31.457Z,15.16
2022-09-28T22:54:58.853Z,14.99
2022-09-28T22:57:46.966Z,15.11
2022-09-28T23:00:21.587Z,15.16
2022-09-28T23:02:50.728Z,15.30
2022-09-28T23:08:37.241Z,15.49
2022-09-28T23:11:17.541Z,15.22
2022-09-28T23:13:57.211Z,15.26
2022-09-28T23:16:37.030Z,15.17
2022-09-28T23:19:05.960Z,15.21
2022-09-28T23:21:56.078Z,14.98
2022-09-28T23:27:29.356Z,15.10
2022-09-28T23:30:11.686Z,15.04
2022-09-28T23:32:43.623Z,15.05
2022-09-28T23:35:33.793Z,15.08
2022-09-28T23:38:21.421Z,15.03
2022-09-28T23:41:13.785Z,15.13
2022-09-28T23:47:00.191Z,15.15
2022-09-28T23:49:46.001Z,15.10
2022-09-28T23:52:19.171Z,15.15
2022-09-28T23:54:51.207Z,15.17
2022-09-28T23:57:20.062Z,15.17
2022-09-28T23:59:50.317Z,15.04
